createdAt,value
2023-02-05T00:02:04.399Z,10.50
2023-02-05T00:04:32.433Z,12.33
2023-02-05T00:07:00.441Z,11.37
2023-02-05T00:09:29.895Z,10.50
2023-02-05T00:11:58.292Z,10.97
2023-02-05T00:14:27.283Z,11.13
2023-02-05T00:16:55.622Z,11.50
2023-02-05T00:19:23.627Z,11.63
2023-02-05T00:21:51.685Z,11.33
2023-02-05T00:24:19.737Z,12.00
2023-02-05T00:26:49.130Z,11.50
2023-02-05T00:29:16.995Z,11.87
2023-02-05T00:31:45.004Z,11.83
2023-02-05T00:34:13.376Z,11.40
2023-02-05T00:36:41.421Z,11.60
2023-02-05T00:39:11.503Z,11.30
2023-02-05T00:41:40.069Z,11.83
2023-02-05T00:44:09.755Z,11.17
2023-02-05T00:46:37.797Z,10.97
2023-02-05T00:49:05.992Z,11.10
2023-02-05T00:51:34.735Z,11.13
2023-02-05T00:54:02.840Z,11.10
2023-02-05T00:56:30.778Z,11.20
2023-02-05T00:59:00.119Z,11.73
2023-02-05T01:01:29.899Z,11.40
2023-02-05T01:03:58.134Z,11.33
2023-02-05T01:06:29.228Z,10.30
2023-02-05T01:08:57.234Z,10.13
2023-02-05T01:11:25.380Z,10.93
2023-02-05T01:13:53.379Z,12.17
2023-02-05T01:16:21.338Z,11.97
2023-02-05T01:18:51.154Z,11.20
2023-02-05T01:21:19.429Z,11.47
2023-02-05T01:23:47.481Z,10.73
2023-02-05T01:26:15.415Z,10.67
2023-02-05T01:28:44.080Z,11.50
2023-02-05T01:31:12.001Z,11.13
2023-02-05T01:33:40.105Z,11.03
2023-02-05T01:36:10.285Z,10.57
2023-02-05T01:38:38.110Z,11.47
2023-02-05T01:41:07.223Z,11.83
2023-02-05T01:43:35.653Z,11.70
2023-02-05T01:46:21.481Z,11.27
2023-02-05T01:48:54.041Z,12.73
2023-02-05T01:51:25.526Z,11.37
2023-02-05T01:53:53.945Z,12.40
2023-02-05T01:56:26.936Z,12.03
2023-02-05T01:59:01.751Z,11.33
2023-02-05T02:01:30.264Z,11.17
2023-02-05T02:04:01.421Z,12.20
2023-02-05T02:06:30.884Z,11.77
2023-02-05T02:08:59.078Z,11.67
2023-02-05T02:11:31.419Z,11.83
2023-02-05T02:14:02.593Z,11.97
2023-02-05T02:16:31.606Z,12.47
2023-02-05T02:19:00.984Z,12.10
2023-02-05T02:22:10.453Z,12.63
2023-02-05T02:24:59.941Z,12.80
2023-02-05T02:27:50.652Z,12.33
2023-02-05T02:30:27.089Z,12.00
2023-02-05T02:33:05.539Z,11.70
2023-02-05T02:35:41.577Z,12.57
2023-02-05T02:38:17.069Z,11.50
2023-02-05T02:40:51.880Z,11.37
2023-02-05T02:43:26.474Z,11.57
2023-02-05T02:46:00.158Z,12.60
2023-02-05T02:48:32.073Z,11.73
2023-02-05T02:51:01.302Z,11.57
2023-02-05T02:53:34.733Z,11.60
2023-02-05T02:56:05.112Z,11.03
2023-02-05T02:58:41.345Z,11.10
2023-02-05T03:01:11.698Z,12.30
2023-02-05T03:03:46.165Z,11.83
2023-02-05T03:06:16.498Z,10.90
2023-02-05T03:08:54.922Z,11.67
2023-02-05T03:11:23.832Z,11.17
2023-02-05T03:13:53.775Z,11.37
2023-02-05T03:16:26.949Z,11.87
2023-02-05T03:18:56.181Z,10.63
2023-02-05T03:21:29.332Z,11.00
2023-02-05T03:23:57.870Z,11.33
2023-02-05T03:26:28.640Z,11.70
2023-02-05T03:29:09.183Z,11.87
2023-02-05T03:31:49.686Z,12.10
2023-02-05T03:34:31.960Z,11.50
2023-02-05T03:37:11.473Z,11.37
2023-02-05T03:39:50.850Z,11.30
2023-02-05T03:42:32.726Z,11.60
2023-02-05T03:45:21.363Z,12.03
2023-02-05T03:48:05.994Z,11.57
2023-02-05T03:50:40.110Z,10.57
2023-02-05T03:53:19.469Z,10.90
2023-02-05T03:55:52.416Z,11.17
2023-02-05T03:58:26.235Z,11.90
2023-02-05T04:00:58.121Z,11.50
2023-02-05T04:03:26.688Z,12.20
2023-02-05T04:05:54.818Z,11.97
2023-02-05T04:08:22.960Z,13.27
2023-02-05T04:10:55.765Z,13.37
2023-02-05T04:13:23.856Z,14.20
2023-02-05T04:15:53.053Z,15.87
2023-02-05T04:18:22.616Z,18.07
2023-02-05T04:20:51.225Z,18.47
2023-02-05T04:23:23.417Z,19.30
2023-02-05T04:25:54.091Z,20.40
2023-02-05T04:28:25.516Z,18.20
2023-02-05T04:30:53.565Z,20.43
2023-02-05T04:33:22.998Z,19.73
2023-02-05T04:35:51.331Z,20.03
2023-02-05T04:38:19.609Z,22.10
2023-02-05T04:40:48.769Z,19.93
2023-02-05T04:43:16.688Z,20.83
2023-02-05T04:45:44.601Z,22.50
2023-02-05T04:48:12.737Z,23.53
2023-02-05T04:50:42.211Z,22.60
2023-02-05T04:53:10.265Z,21.50
2023-02-05T04:55:38.334Z,23.47
2023-02-05T04:58:06.308Z,24.73
2023-02-05T05:00:34.206Z,25.80
2023-02-05T05:03:02.342Z,24.00
2023-02-05T05:05:31.357Z,25.63
2023-02-05T05:08:02.123Z,23.20
2023-02-05T05:10:31.266Z,23.37
2023-02-05T05:12:59.352Z,25.23
2023-02-05T05:15:27.235Z,23.93
2023-02-05T05:17:55.137Z,23.87
2023-02-05T05:20:23.141Z,23.63
2023-02-05T05:22:51.021Z,23.10
2023-02-05T05:25:20.561Z,22.90
2023-02-05T05:27:48.980Z,23.27
2023-02-05T05:30:17.075Z,22.43
2023-02-05T05:32:45.068Z,24.37
2023-02-05T05:35:12.995Z,23.97
2023-02-05T05:37:40.923Z,24.17
2023-02-05T05:40:28.363Z,24.33
2023-02-05T05:43:15.377Z,25.73
2023-02-05T05:45:43.410Z,24.50
2023-02-05T05:48:11.423Z,25.93
2023-02-05T05:50:39.333Z,25.83
2023-02-05T05:53:07.551Z,26.23
2023-02-05T05:55:35.822Z,25.63
2023-02-05T05:58:06.989Z,26.40
2023-02-05T06:00:35.004Z,25.43
2023-02-05T06:03:02.929Z,26.00
2023-02-05T06:05:31.029Z,24.83
2023-02-05T06:07:58.981Z,24.10
2023-02-05T06:10:27.397Z,25.07
2023-02-05T06:12:55.390Z,25.47
2023-02-05T06:15:26.805Z,26.20
2023-02-05T06:17:55.010Z,24.83
2023-02-05T06:20:22.988Z,25.23
2023-02-05T06:22:50.949Z,26.03
2023-02-05T06:25:19.035Z,24.80
2023-02-05T06:27:47.148Z,25.87
2023-02-05T06:30:15.472Z,25.93
2023-02-05T06:32:44.843Z,26.93
2023-02-05T06:35:12.786Z,27.03
2023-02-05T06:37:48.068Z,26.37
2023-02-05T06:40:18.173Z,26.20
2023-02-05T06:42:46.656Z,26.10
2023-02-05T06:45:14.881Z,23.90
2023-02-05T06:47:44.511Z,24.73
2023-02-05T06:50:12.583Z,25.17
2023-02-05T06:52:40.557Z,25.87
2023-02-05T06:55:08.853Z,24.20
2023-02-05T06:57:36.838Z,24.90
2023-02-05T07:00:06.027Z,24.33
2023-02-05T07:02:34.199Z,23.40
2023-02-05T07:05:03.591Z,22.20
2023-02-05T07:07:31.653Z,22.07
2023-02-05T07:09:59.638Z,21.67
2023-02-05T07:12:27.921Z,21.50
2023-02-05T07:14:55.947Z,22.10
2023-02-05T07:17:24.019Z,21.40
2023-02-05T07:19:52.377Z,21.27
2023-02-05T07:22:21.874Z,21.07
2023-02-05T07:24:49.756Z,21.00
2023-02-05T07:27:17.899Z,20.97
2023-02-05T07:29:45.680Z,20.80
2023-02-05T07:32:13.810Z,18.93
2023-02-05T07:34:41.795Z,18.03
2023-02-05T07:37:10.881Z,17.60
2023-02-05T07:39:40.264Z,17.33
2023-02-05T07:42:08.260Z,18.03
2023-02-05T07:44:44.187Z,18.63
2023-02-05T07:47:12.256Z,18.90
2023-02-05T07:49:40.296Z,17.23
2023-02-05T07:52:08.353Z,16.93
2023-02-05T07:54:36.699Z,17.27
2023-02-05T07:57:07.079Z,17.23
2023-02-05T07:59:35.237Z,17.80
2023-02-05T08:02:03.142Z,16.43
2023-02-05T08:04:31.120Z,16.47
2023-02-05T08:06:59.146Z,13.17
2023-02-05T08:09:27.383Z,12.93
2023-02-05T08:11:55.293Z,11.27
2023-02-05T08:14:24.739Z,10.87
2023-02-05T08:16:52.792Z,10.47
2023-02-05T08:19:20.743Z,10.50
2023-02-05T08:21:48.681Z,6.33
2023-02-05T08:24:16.658Z,6.30
2023-02-05T08:26:45.215Z,5.67
2023-02-05T08:29:13.500Z,6.40
2023-02-05T08:31:43.029Z,7.90
2023-02-05T08:34:11.037Z,7.77
2023-02-05T08:36:38.882Z,7.83
2023-02-05T08:39:06.938Z,5.93
2023-02-05T08:41:34.920Z,4.83
2023-02-05T08:44:02.917Z,4.80
2023-02-05T08:46:40.330Z,4.73
2023-02-05T08:49:17.102Z,4.10
2023-02-05T08:51:45.006Z,3.87
2023-02-05T08:54:13.264Z,3.00
2023-02-05T08:56:41.763Z,3.43
2023-02-05T08:59:10.416Z,3.83
2023-02-05T09:01:40.908Z,4.40
2023-02-05T09:04:09.670Z,4.23
2023-02-05T09:06:39.275Z,3.93
2023-02-05T09:09:07.249Z,3.47
2023-02-05T09:11:35.368Z,3.40
2023-02-05T09:14:03.240Z,3.13
2023-02-05T09:16:31.286Z,2.60
2023-02-05T09:19:00.620Z,2.70
2023-02-05T09:21:28.726Z,2.77
2023-02-05T09:23:58.548Z,2.50
2023-02-05T09:26:27.157Z,2.83
2023-02-05T09:28:57.148Z,3.60
2023-02-05T09:31:25.570Z,2.90
2023-02-05T09:33:55.827Z,3.30
2023-02-05T09:36:24.922Z,3.80
2023-02-05T09:39:11.850Z,4.23
2023-02-05T09:41:54.705Z,3.10
2023-02-05T09:44:42.085Z,3.10
2023-02-05T09:47:19.781Z,2.60
2023-02-05T09:49:54.582Z,2.83
2023-02-05T09:52:27.239Z,2.00
2023-02-05T09:54:59.313Z,2.17
2023-02-05T09:57:35.314Z,2.33
2023-02-05T10:00:05.891Z,2.43
2023-02-05T10:02:50.057Z,3.07
2023-02-05T10:05:19.463Z,2.53
2023-02-05T10:07:53.601Z,2.77
2023-02-05T10:10:26.418Z,2.60
2023-02-05T10:13:10.468Z,1.93
2023-02-05T10:16:04.382Z,2.50
2023-02-05T10:18:45.599Z,2.53
2023-02-05T10:21:28.824Z,2.50
2023-02-05T10:24:13.302Z,2.27
2023-02-05T10:26:47.738Z,1.90
2023-02-05T10:29:26.199Z,2.07
2023-02-05T10:32:06.891Z,2.00
2023-02-05T10:34:48.940Z,1.97
2023-02-05T10:37:19.616Z,2.30
2023-02-05T10:39:49.505Z,2.10
2023-02-05T10:42:28.858Z,2.10
2023-02-05T10:45:05.225Z,2.00
2023-02-05T10:48:04.601Z,2.50
2023-02-05T10:50:48.036Z,2.50
2023-02-05T10:53:19.931Z,2.23
2023-02-05T10:55:48.203Z,2.50
2023-02-05T10:58:31.956Z,2.93
2023-02-05T11:01:02.291Z,2.73
2023-02-05T11:03:30.817Z,2.47
2023-02-05T11:05:59.558Z,2.77
2023-02-05T11:08:37.805Z,3.50
2023-02-05T11:11:06.746Z,2.63
2023-02-05T11:13:39.922Z,2.67
2023-02-05T11:16:11.126Z,3.33
2023-02-05T11:18:42.446Z,2.90
2023-02-05T11:21:11.473Z,4.30
2023-02-05T11:23:41.285Z,3.97
2023-02-05T11:26:11.262Z,3.13
2023-02-05T11:28:40.849Z,3.10
2023-02-05T11:31:26.584Z,3.37
2023-02-05T11:34:12.110Z,2.90
2023-02-05T11:36:48.760Z,3.10
2023-02-05T11:39:30.980Z,3.33
2023-02-05T11:41:59.005Z,2.87
2023-02-05T11:44:30.673Z,3.07
2023-02-05T11:47:02.482Z,2.90
2023-02-05T11:49:35.863Z,3.00
2023-02-05T11:52:10.993Z,2.37
2023-02-05T11:54:41.024Z,1.97
2023-02-05T11:57:30.986Z,1.80
2023-02-05T12:00:01.081Z,1.47
2023-02-05T12:02:36.188Z,2.13
2023-02-05T12:05:12.046Z,1.73
2023-02-05T12:07:46.197Z,1.33
2023-02-05T12:10:17.755Z,1.70
2023-02-05T12:12:58.701Z,1.40
2023-02-05T12:15:30.673Z,1.63
2023-02-05T12:18:07.872Z,1.63
2023-02-05T12:20:40.681Z,1.80
2023-02-05T12:23:39.507Z,1.40
2023-02-05T12:26:27.485Z,1.33
2023-02-05T12:29:09.868Z,1.47
2023-02-05T12:31:57.212Z,1.60
2023-02-05T12:34:33.520Z,1.30
2023-02-05T12:37:17.474Z,1.17
2023-02-05T12:39:47.938Z,1.27
2023-02-05T12:42:30.446Z,1.30
2023-02-05T12:45:18.124Z,1.30
2023-02-05T12:48:01.756Z,1.70
2023-02-05T12:50:53.420Z,1.47
2023-02-05T12:53:38.869Z,1.40
2023-02-05T12:56:26.952Z,1.30
2023-02-05T12:59:00.900Z,1.53
2023-02-05T13:01:38.179Z,1.87
2023-02-05T13:04:08.723Z,1.53
2023-02-05T13:06:42.852Z,1.30
2023-02-05T13:09:20.476Z,1.27
2023-02-05T13:11:56.177Z,1.13
2023-02-05T13:14:28.766Z,1.60
2023-02-05T13:17:02.260Z,1.20
2023-02-05T13:19:34.228Z,1.37
2023-02-05T13:22:30.872Z,1.10
2023-02-05T13:25:24.835Z,1.70
2023-02-05T13:28:17.259Z,1.87
2023-02-05T13:30:50.558Z,1.50
2023-02-05T13:33:18.700Z,1.30
2023-02-05T13:35:58.072Z,1.73
2023-02-05T13:38:45.919Z,1.10
2023-02-05T13:41:31.135Z,1.40
2023-02-05T13:44:46.992Z,1.73
2023-02-05T13:47:33.450Z,1.37
2023-02-05T13:50:16.760Z,1.20
2023-02-05T13:53:06.177Z,1.20
2023-02-05T13:55:55.390Z,1.27
2023-02-05T13:58:25.370Z,1.70
2023-02-05T14:00:59.417Z,1.60
2023-02-05T14:03:36.129Z,1.30
2023-02-05T14:06:22.824Z,1.37
2023-02-05T14:08:53.118Z,1.20
2023-02-05T14:11:23.948Z,1.50
2023-02-05T14:14:29.055Z,1.37
2023-02-05T14:16:57.734Z,1.67
2023-02-05T14:19:52.295Z,1.50
2023-02-05T14:22:36.384Z,1.60
2023-02-05T14:25:05.249Z,1.60
2023-02-05T14:27:51.303Z,2.00
2023-02-05T14:30:51.519Z,1.63
2023-02-05T14:33:35.145Z,1.60
2023-02-05T14:36:30.192Z,1.67
2023-02-05T14:39:02.014Z,1.70
2023-02-05T14:41:33.799Z,1.80
2023-02-05T14:44:05.787Z,1.97
2023-02-05T14:46:39.927Z,1.87
2023-02-05T14:49:21.883Z,2.30
2023-02-05T14:51:53.088Z,2.13
2023-02-05T14:54:24.156Z,2.07
2023-02-05T14:56:55.047Z,2.47
2023-02-05T14:59:29.294Z,2.53
2023-02-05T15:01:58.053Z,2.13
2023-02-05T15:04:35.633Z,2.30
2023-02-05T15:07:12.347Z,2.37
2023-02-05T15:09:45.378Z,1.93
2023-02-05T15:12:34.364Z,2.20
2023-02-05T15:15:28.164Z,2.10
2023-02-05T15:17:59.155Z,2.13
2023-02-05T15:20:32.397Z,2.13
2023-02-05T15:23:06.469Z,2.33
2023-02-05T15:25:39.542Z,2.00
2023-02-05T15:28:19.856Z,2.70
2023-02-05T15:30:55.654Z,2.20
2023-02-05T15:33:34.168Z,2.37
2023-02-05T15:36:08.765Z,2.60
2023-02-05T15:38:45.357Z,2.63
2023-02-05T15:41:16.981Z,2.57
2023-02-05T15:43:59.168Z,2.60
2023-02-05T15:46:29.994Z,2.53
2023-02-05T15:48:59.621Z,2.23
2023-02-05T15:51:32.091Z,2.37
2023-02-05T15:54:02.868Z,2.93
2023-02-05T15:56:35.443Z,2.80
2023-02-05T15:59:06.299Z,2.43
2023-02-05T16:01:38.715Z,3.10
2023-02-05T16:04:18.368Z,3.33
2023-02-05T16:06:46.446Z,3.10
2023-02-05T16:09:18.955Z,2.97
2023-02-05T16:11:48.182Z,2.43
2023-02-05T16:14:18.727Z,2.73
2023-02-05T16:16:59.515Z,3.20
2023-02-05T16:19:33.484Z,2.97
2023-02-05T16:22:06.892Z,2.73
2023-02-05T16:24:38.137Z,3.43
2023-02-05T16:27:10.283Z,3.70
2023-02-05T16:29:48.138Z,2.40
2023-02-05T16:32:25.214Z,2.47
2023-02-05T16:34:53.214Z,2.40
2023-02-05T16:37:23.939Z,3.53
2023-02-05T16:39:54.548Z,2.90
2023-02-05T16:42:35.277Z,2.80
2023-02-05T16:45:22.997Z,3.23
2023-02-05T16:48:26.514Z,3.03
2023-02-05T16:50:56.731Z,2.70
2023-02-05T16:53:26.913Z,3.10
2023-02-05T16:55:59.299Z,3.30
2023-02-05T16:58:38.641Z,3.20
2023-02-05T17:01:06.866Z,3.07
2023-02-05T17:03:39.711Z,2.80
2023-02-05T17:06:14.630Z,3.13
2023-02-05T17:08:45.470Z,2.73
2023-02-05T17:11:35.477Z,3.17
2023-02-05T17:14:22.685Z,3.13
2023-02-05T17:16:57.015Z,2.77
2023-02-05T17:19:28.315Z,3.00
2023-02-05T17:22:20.937Z,2.50
2023-02-05T17:24:51.917Z,2.97
2023-02-05T17:27:25.927Z,3.33
2023-02-05T17:29:54.145Z,2.93
2023-02-05T17:32:22.949Z,3.40
2023-02-05T17:34:52.743Z,3.63
2023-02-05T17:37:20.820Z,3.20
2023-02-05T17:39:49.795Z,3.87
2023-02-05T17:42:22.083Z,4.57
2023-02-05T17:44:50.755Z,3.13
2023-02-05T17:47:20.079Z,3.87
2023-02-05T17:49:48.102Z,3.53
2023-02-05T17:52:17.788Z,3.50
2023-02-05T17:54:46.497Z,3.23
2023-02-05T17:57:17.734Z,3.17
2023-02-05T17:59:45.887Z,3.10
2023-02-05T18:02:14.695Z,3.50
2023-02-05T18:04:44.795Z,3.80
2023-02-05T18:07:22.760Z,3.40
2023-02-05T18:09:50.737Z,3.33
2023-02-05T18:12:18.809Z,4.10
2023-02-05T18:14:46.773Z,3.83
2023-02-05T18:17:15.045Z,3.60
2023-02-05T18:19:42.951Z,3.63
2023-02-05T18:22:11.046Z,3.67
2023-02-05T18:24:40.482Z,3.67
2023-02-05T18:27:09.271Z,3.77
2023-02-05T18:29:37.631Z,3.67
2023-02-05T18:32:06.344Z,3.37
2023-02-05T18:34:34.404Z,4.03
2023-02-05T18:37:02.320Z,3.67
2023-02-05T18:39:30.414Z,3.77
2023-02-05T18:42:00.068Z,3.67
2023-02-05T18:44:28.512Z,3.63
2023-02-05T18:46:56.415Z,3.33
2023-02-05T18:49:24.497Z,3.93
2023-02-05T18:51:52.477Z,3.30
2023-02-05T18:54:20.405Z,3.40
2023-02-05T18:56:49.087Z,3.80
2023-02-05T18:59:21.083Z,3.77
2023-02-05T19:01:49.117Z,3.87
2023-02-05T19:04:18.639Z,3.67
2023-02-05T19:06:50.726Z,3.90
2023-02-05T19:09:19.147Z,4.10
2023-02-05T19:11:47.312Z,3.53
2023-02-05T19:14:17.604Z,4.00
2023-02-05T19:16:48.513Z,3.80
2023-02-05T19:19:17.723Z,4.20
2023-02-05T19:21:47.479Z,3.30
2023-02-05T19:24:17.391Z,4.30
2023-02-05T19:26:45.342Z,5.17
2023-02-05T19:29:16.248Z,4.63
2023-02-05T19:31:46.346Z,4.00
2023-02-05T19:34:14.469Z,4.00
2023-02-05T19:36:42.772Z,5.20
2023-02-05T19:39:13.160Z,4.67
2023-02-05T19:41:41.821Z,4.30
2023-02-05T19:44:10.498Z,4.90
2023-02-05T19:46:41.619Z,4.53
2023-02-05T19:49:14.724Z,4.20
2023-02-05T19:51:45.510Z,4.63
2023-02-05T19:54:14.982Z,5.00
2023-02-05T19:56:43.378Z,4.43
2023-02-05T19:59:12.661Z,5.03
2023-02-05T20:01:43.842Z,4.53
2023-02-05T20:04:17.484Z,4.23
2023-02-05T20:06:46.257Z,4.30
2023-02-05T20:09:15.283Z,4.80
2023-02-05T20:11:44.762Z,4.40
2023-02-05T20:14:13.207Z,4.47
2023-02-05T20:16:41.286Z,3.70
2023-02-05T20:19:12.736Z,4.47
2023-02-05T20:21:43.270Z,4.30
2023-02-05T20:24:11.601Z,4.10
2023-02-05T20:26:40.372Z,4.87
2023-02-05T20:29:26.479Z,4.33
2023-02-05T20:31:55.243Z,4.10
2023-02-05T20:34:25.785Z,4.20
2023-02-05T20:36:57.365Z,4.83
2023-02-05T20:39:28.763Z,4.40
2023-02-05T20:41:58.877Z,4.37
2023-02-05T20:44:27.647Z,4.47
2023-02-05T20:46:55.944Z,3.93
2023-02-05T20:49:24.228Z,4.27
2023-02-05T20:51:53.237Z,4.10
2023-02-05T20:54:23.134Z,4.57
2023-02-05T20:56:51.146Z,5.50
2023-02-05T20:59:19.263Z,4.50
2023-02-05T21:01:47.368Z,4.73
2023-02-05T21:04:15.277Z,5.27
2023-02-05T21:06:43.234Z,4.27
2023-02-05T21:09:11.402Z,3.90
2023-02-05T21:11:41.610Z,4.00
2023-02-05T21:14:10.072Z,4.27
2023-02-05T21:16:38.890Z,4.37
2023-02-05T21:19:08.800Z,4.03
2023-02-05T21:21:38.461Z,3.97
2023-02-05T21:24:08.505Z,4.60
2023-02-05T21:26:38.379Z,4.50
2023-02-05T21:29:10.114Z,4.20
2023-02-05T21:31:40.250Z,4.13
2023-02-05T21:34:10.524Z,4.70
2023-02-05T21:36:38.587Z,4.00
2023-02-05T21:39:06.637Z,4.30
2023-02-05T21:41:34.696Z,4.17
2023-02-05T21:44:02.818Z,3.63
2023-02-05T21:46:32.449Z,4.50
2023-02-05T21:49:01.628Z,4.77
2023-02-05T21:51:32.097Z,3.90
2023-02-05T21:54:01.821Z,3.87
2023-02-05T21:56:31.588Z,4.13
2023-02-05T21:58:59.691Z,3.80
2023-02-05T22:01:29.547Z,4.23
2023-02-05T22:04:00.705Z,4.43
2023-02-05T22:06:30.773Z,5.33
2023-02-05T22:08:59.562Z,4.80
2023-02-05T22:11:28.539Z,4.60
2023-02-05T22:13:57.423Z,3.90
2023-02-05T22:16:26.792Z,4.33
2023-02-05T22:18:55.707Z,4.30
2023-02-05T22:21:26.849Z,4.30
2023-02-05T22:23:56.855Z,4.03
2023-02-05T22:26:26.993Z,4.23
2023-02-05T22:28:56.591Z,4.10
2023-02-05T22:31:24.492Z,4.30
2023-02-05T22:33:52.575Z,3.43
2023-02-05T22:36:22.504Z,3.87
2023-02-05T22:38:53.039Z,4.80
2023-02-05T22:41:23.709Z,4.80
2023-02-05T22:43:52.411Z,4.33
2023-02-05T22:46:22.123Z,4.07
2023-02-05T22:48:51.559Z,5.33
2023-02-05T22:51:22.107Z,3.97
2023-02-05T22:53:53.459Z,4.20
2023-02-05T22:56:22.097Z,4.37
2023-02-05T22:58:50.869Z,3.90
2023-02-05T23:01:20.641Z,4.27
2023-02-05T23:03:50.755Z,4.87
2023-02-05T23:06:20.814Z,4.80
2023-02-05T23:08:53.097Z,4.80
2023-02-05T23:11:22.027Z,4.33
2023-02-05T23:13:50.483Z,5.07
2023-02-05T23:16:20.993Z,4.30
2023-02-05T23:18:49.493Z,5.90
2023-02-05T23:21:19.488Z,5.00
2023-02-05T23:23:47.779Z,5.03
2023-02-05T23:26:19.097Z,4.70
2023-02-05T23:28:48.166Z,4.50
2023-02-05T23:31:17.228Z,4.87
2023-02-05T23:33:45.670Z,4.83
2023-02-05T23:36:13.950Z,4.63
2023-02-05T23:38:42.082Z,4.90
2023-02-05T23:41:10.370Z,4.77
2023-02-05T23:43:40.570Z,4.60
2023-02-05T23:46:09.433Z,5.40
2023-02-05T23:48:37.455Z,5.37
2023-02-05T23:51:05.304Z,4.23
2023-02-05T23:53:33.271Z,5.17
2023-02-05T23:56:02.016Z,4.13
2023-02-05T23:58:29.866Z,4.77
